createdAt,value
2019-04-09T00:00:44.417Z,12.58
2019-04-09T00:01:44.546Z,12.49
2019-04-09T00:02:44.480Z,12.54
2019-04-09T00:03:44.235Z,12.58
2019-04-09T00:04:44.374Z,12.61
2019-04-09T00:05:44.497Z,12.61
2019-04-09T00:06:44.613Z,12.64
2019-04-09T00:07:58.877Z,12.65
2019-04-09T00:08:48.249Z,12.73
2019-04-09T00:09:48.561Z,12.76
2019-04-09T00:10:49.583Z,12.78
2019-04-09T00:11:49.775Z,12.67
2019-04-09T00:12:49.278Z,12.73
2019-04-09T00:13:51.093Z,12.72
2019-04-09T00:14:46.701Z,12.79
2019-04-09T00:15:45.946Z,12.80
2019-04-09T00:16:46.144Z,12.68
2019-04-09T00:17:46.568Z,12.79
2019-04-09T00:18:46.463Z,12.70
2019-04-09T00:19:46.587Z,12.79
2019-04-09T00:20:47.069Z,12.72
2019-04-09T00:21:47.685Z,12.78
2019-04-09T00:22:47.006Z,12.73
2019-04-09T00:23:47.119Z,12.70
2019-04-09T00:24:47.688Z,12.73
2019-04-09T00:25:47.379Z,12.67
2019-04-09T00:26:51.752Z,12.73
2019-04-09T00:27:47.701Z,12.68
2019-04-09T00:28:47.867Z,12.80
2019-04-09T00:29:48.233Z,12.68
2019-04-09T00:30:48.152Z,12.72
2019-04-09T00:31:48.300Z,12.68
2019-04-09T00:32:48.756Z,12.78
2019-04-09T00:33:48.718Z,12.67
2019-04-09T00:34:48.714Z,12.68
2019-04-09T00:35:48.855Z,12.78
2019-04-09T00:36:48.998Z,12.72
2019-04-09T00:37:49.691Z,12.62
2019-04-09T00:38:49.711Z,12.64
2019-04-09T00:39:49.431Z,12.76
2019-04-09T00:40:49.568Z,12.70
2019-04-09T00:41:49.713Z,12.72
2019-04-09T00:42:49.890Z,12.64
2019-04-09T00:43:49.939Z,12.73
2019-04-09T00:44:50.228Z,12.68
2019-04-09T00:45:51.022Z,12.60
2019-04-09T00:46:51.138Z,12.65
2019-04-09T00:47:51.099Z,12.67
2019-04-09T00:48:50.843Z,12.68
2019-04-09T00:49:50.971Z,12.64
2019-04-09T00:50:52.079Z,12.68
2019-04-09T00:51:51.419Z,12.65
2019-04-09T00:52:51.417Z,12.61
2019-04-09T00:53:52.372Z,12.60
2019-04-09T00:54:52.203Z,12.65
2019-04-09T00:55:51.910Z,12.60
2019-04-09T00:57:00.961Z,12.57
2019-04-09T00:57:52.167Z,12.60
2019-04-09T00:58:57.022Z,12.62
2019-04-09T00:59:55.354Z,12.50
2019-04-09T01:00:55.307Z,12.42
2019-04-09T01:01:57.789Z,12.31
2019-04-09T01:02:53.773Z,12.47
2019-04-09T01:03:53.169Z,12.57
2019-04-09T01:04:53.363Z,12.42
2019-04-09T01:05:53.920Z,12.36
2019-04-09T01:06:53.958Z,12.47
2019-04-09T01:07:53.775Z,12.45
2019-04-09T01:08:54.207Z,12.42
2019-04-09T01:09:54.052Z,12.53
2019-04-09T01:10:54.881Z,12.57
2019-04-09T01:11:54.364Z,12.62
2019-04-09T01:12:54.660Z,12.61
2019-04-09T01:13:55.999Z,12.60
2019-04-09T01:14:55.938Z,12.53
2019-04-09T01:15:55.498Z,12.60
2019-04-09T01:16:55.046Z,12.57
2019-04-09T01:17:56.270Z,12.60
2019-04-09T01:19:06.991Z,12.57
2019-04-09T01:19:56.324Z,12.62
2019-04-09T01:20:56.359Z,12.58
2019-04-09T01:21:56.200Z,12.60
2019-04-09T01:22:55.884Z,12.47
2019-04-09T01:23:56.044Z,12.47
2019-04-09T01:24:56.189Z,12.49
2019-04-09T01:25:57.490Z,12.54
2019-04-09T01:27:08.195Z,12.47
2019-04-09T01:27:56.704Z,12.58
2019-04-09T01:28:57.627Z,12.55
2019-04-09T01:29:56.932Z,12.58
2019-04-09T01:30:57.043Z,12.54
2019-04-09T01:31:57.978Z,12.61
2019-04-09T01:32:58.043Z,12.57
2019-04-09T01:33:57.804Z,12.61
2019-04-09T01:34:57.621Z,12.61
2019-04-09T01:35:57.789Z,12.55
2019-04-09T01:36:57.933Z,12.57
2019-04-09T01:37:58.056Z,12.64
2019-04-09T01:38:58.979Z,12.47
2019-04-09T01:39:58.902Z,12.39
2019-04-09T01:40:58.787Z,12.50
2019-04-09T01:41:58.700Z,12.43
2019-04-09T01:42:58.846Z,12.35
2019-04-09T01:43:59.020Z,12.45
2019-04-09T01:44:59.142Z,12.42
2019-04-09T01:45:59.895Z,12.32
2019-04-09T01:46:59.941Z,12.24
2019-04-09T01:47:59.604Z,12.21
2019-04-09T01:48:59.745Z,12.15
2019-04-09T01:50:00.895Z,12.22
2019-04-09T01:51:00.109Z,12.15
2019-04-09T01:52:00.201Z,12.13
2019-04-09T01:53:00.955Z,12.13
2019-04-09T01:54:01.119Z,12.13
2019-04-09T01:55:00.748Z,12.09
2019-04-09T01:56:00.946Z,12.09
2019-04-09T01:57:01.120Z,12.20
2019-04-09T01:58:01.305Z,12.13
2019-04-09T01:59:02.027Z,12.15
2019-04-09T02:00:01.548Z,12.22
2019-04-09T02:01:01.703Z,12.25
2019-04-09T02:02:02.639Z,12.17
2019-04-09T02:03:02.536Z,12.18
2019-04-09T02:04:02.385Z,12.18
2019-04-09T02:05:02.848Z,12.13
2019-04-09T02:06:02.648Z,12.12
2019-04-09T02:07:02.579Z,12.10
2019-04-09T02:08:03.594Z,12.12
2019-04-09T02:09:02.923Z,12.06
2019-04-09T02:10:03.034Z,12.09
2019-04-09T02:11:03.939Z,12.12
2019-04-09T02:12:04.040Z,12.02
2019-04-09T02:13:03.886Z,12.12
2019-04-09T02:14:03.599Z,12.06
2019-04-09T02:15:04.834Z,11.97
2019-04-09T02:16:04.028Z,12.03
2019-04-09T02:17:04.014Z,12.06
2019-04-09T02:18:05.113Z,11.97
2019-04-09T02:19:04.974Z,11.88
2019-04-09T02:20:04.424Z,11.99
2019-04-09T02:21:04.749Z,11.94
2019-04-09T02:22:04.768Z,11.87
2019-04-09T02:23:04.818Z,11.97
2019-04-09T02:24:05.165Z,11.99
2019-04-09T02:25:06.105Z,12.03
2019-04-09T02:26:06.047Z,12.00
2019-04-09T02:27:05.470Z,12.13
2019-04-09T02:28:05.791Z,12.21
2019-04-09T02:29:06.617Z,12.25
2019-04-09T02:30:06.449Z,12.24
2019-04-09T02:31:06.240Z,12.27
2019-04-09T02:32:07.200Z,12.28
2019-04-09T02:33:07.275Z,12.32
2019-04-09T02:34:07.259Z,12.37
2019-04-09T02:35:08.212Z,12.36
2019-04-09T02:36:07.865Z,12.46
2019-04-09T02:37:07.310Z,12.32
2019-04-09T02:38:08.318Z,12.35
2019-04-09T02:39:07.339Z,12.45
2019-04-09T02:40:07.464Z,12.36
2019-04-09T02:41:07.602Z,12.39
2019-04-09T02:42:07.729Z,12.31
2019-04-09T02:43:08.251Z,12.37
2019-04-09T02:44:08.386Z,12.29
2019-04-09T02:45:08.413Z,12.36
2019-04-09T02:46:08.244Z,12.36
2019-04-09T02:47:09.389Z,12.39
2019-04-09T02:48:09.245Z,12.40
2019-04-09T02:49:08.637Z,12.40
2019-04-09T02:50:08.982Z,12.39
2019-04-09T02:51:09.416Z,12.28
2019-04-09T02:52:09.317Z,12.27
2019-04-09T02:53:10.173Z,12.27
2019-04-09T02:54:10.165Z,12.27
2019-04-09T02:55:09.599Z,12.22
2019-04-09T02:56:09.764Z,12.24
2019-04-09T02:57:09.924Z,12.09
2019-04-09T02:58:10.101Z,12.10
2019-04-09T02:59:10.231Z,12.09
2019-04-09T03:00:10.351Z,12.06
2019-04-09T03:01:10.949Z,12.02
2019-04-09T03:02:11.777Z,11.88
2019-04-09T03:03:10.865Z,11.95
2019-04-09T03:04:11.037Z,11.83
2019-04-09T03:05:11.837Z,11.83
2019-04-09T03:06:11.793Z,11.77
2019-04-09T03:07:11.490Z,11.78
2019-04-09T03:08:11.643Z,11.73
2019-04-09T03:09:12.521Z,11.69
2019-04-09T03:10:11.993Z,11.72
2019-04-09T03:11:13.047Z,11.68
2019-04-09T03:12:12.468Z,11.73
2019-04-09T03:13:12.436Z,11.57
2019-04-09T03:14:13.593Z,11.65
2019-04-09T03:15:13.611Z,11.63
2019-04-09T03:16:13.202Z,11.59
2019-04-09T03:17:13.123Z,11.55
2019-04-09T03:18:13.297Z,11.55
2019-04-09T03:19:14.267Z,11.57
2019-04-09T03:20:14.129Z,11.50
2019-04-09T03:21:13.763Z,11.48
2019-04-09T03:22:13.939Z,11.47
2019-04-09T03:23:14.087Z,11.50
2019-04-09T03:24:14.306Z,11.41
2019-04-09T03:25:14.386Z,11.43
2019-04-09T03:26:14.567Z,11.45
2019-04-09T03:27:14.727Z,11.37
2019-04-09T03:28:15.167Z,11.40
2019-04-09T03:29:15.969Z,11.36
2019-04-09T03:30:16.620Z,11.33
2019-04-09T03:31:15.389Z,11.40
2019-04-09T03:32:16.933Z,11.29
2019-04-09T03:33:16.642Z,11.37
2019-04-09T03:34:15.927Z,11.40
2019-04-09T03:35:15.934Z,11.26
2019-04-09T03:36:16.110Z,11.19
2019-04-09T03:37:16.782Z,11.15
2019-04-09T03:38:16.421Z,11.18
2019-04-09T03:39:17.671Z,11.11
2019-04-09T03:40:16.813Z,11.18
2019-04-09T03:41:16.933Z,11.10
2019-04-09T03:42:17.082Z,11.15
2019-04-09T03:43:17.244Z,11.26
2019-04-09T03:44:17.411Z,11.11
2019-04-09T03:45:19.711Z,11.12
2019-04-09T03:46:20.762Z,10.96
2019-04-09T03:47:19.332Z,11.08
2019-04-09T03:48:19.396Z,10.97
2019-04-09T03:49:19.003Z,11.11
2019-04-09T03:50:22.326Z,11.10
2019-04-09T03:51:20.164Z,10.99
2019-04-09T03:52:20.371Z,11.08
2019-04-09T03:53:22.865Z,11.02
2019-04-09T03:54:22.277Z,11.08
2019-04-09T03:55:22.968Z,11.07
2019-04-09T03:56:21.652Z,11.05
2019-04-09T03:57:21.967Z,10.97
2019-04-09T03:58:23.674Z,11.08
2019-04-09T03:59:22.960Z,11.07
2019-04-09T04:00:22.811Z,10.97
2019-04-09T04:01:22.826Z,11.08
2019-04-09T04:02:24.169Z,11.05
2019-04-09T04:03:23.512Z,11.11
2019-04-09T04:04:21.421Z,11.04
2019-04-09T04:05:22.847Z,11.11
2019-04-09T04:06:21.553Z,11.00
2019-04-09T04:07:21.577Z,11.04
2019-04-09T04:08:21.122Z,10.99
2019-04-09T04:09:23.204Z,10.96
2019-04-09T04:10:21.758Z,10.96
2019-04-09T04:11:21.559Z,11.10
2019-04-09T04:12:21.730Z,11.02
2019-04-09T04:13:22.455Z,10.96
2019-04-09T04:14:22.606Z,10.94
2019-04-09T04:15:22.299Z,10.89
2019-04-09T04:16:22.562Z,10.90
2019-04-09T04:17:22.681Z,10.90
2019-04-09T04:18:22.828Z,10.96
2019-04-09T04:19:23.522Z,10.97
2019-04-09T04:20:23.225Z,10.90
2019-04-09T04:21:23.490Z,10.86
2019-04-09T04:22:23.551Z,10.82
2019-04-09T04:23:23.696Z,10.89
2019-04-09T04:24:24.843Z,10.93
2019-04-09T04:25:23.928Z,10.89
2019-04-09T04:26:24.542Z,11.00
2019-04-09T04:27:24.219Z,10.92
2019-04-09T04:28:29.261Z,11.02
2019-04-09T04:29:25.389Z,10.92
2019-04-09T04:30:24.754Z,10.92
2019-04-09T04:31:25.887Z,10.92
2019-04-09T04:32:25.117Z,10.93
2019-04-09T04:33:25.358Z,10.94
2019-04-09T04:34:26.466Z,10.90
2019-04-09T04:35:26.421Z,11.00
2019-04-09T04:36:25.798Z,10.92
2019-04-09T04:37:25.971Z,11.00
2019-04-09T04:38:27.067Z,10.93
2019-04-09T04:39:26.477Z,11.04
2019-04-09T04:40:27.112Z,10.94
2019-04-09T04:41:26.612Z,10.99
2019-04-09T04:42:28.395Z,10.90
2019-04-09T04:43:28.645Z,10.92
2019-04-09T04:44:28.525Z,10.93
2019-04-09T04:45:27.111Z,10.86
2019-04-09T04:46:27.391Z,10.87
2019-04-09T04:47:28.433Z,10.84
2019-04-09T04:48:29.283Z,10.87
2019-04-09T04:49:29.198Z,10.96
2019-04-09T04:50:29.135Z,10.87
2019-04-09T04:51:29.518Z,10.90
2019-04-09T04:52:28.437Z,10.96
2019-04-09T04:53:28.540Z,10.92
2019-04-09T04:54:28.699Z,10.90
2019-04-09T04:55:28.962Z,10.90
2019-04-09T04:56:29.924Z,11.02
2019-04-09T04:57:29.449Z,10.93
2019-04-09T04:58:38.494Z,10.94
2019-04-09T04:59:29.437Z,10.93
2019-04-09T05:00:29.621Z,10.99
2019-04-09T05:01:30.458Z,10.84
2019-04-09T05:02:30.025Z,10.87
2019-04-09T05:03:30.512Z,10.97
2019-04-09T05:04:30.509Z,10.87
2019-04-09T05:05:31.002Z,10.87
2019-04-09T05:06:31.642Z,10.93
2019-04-09T05:07:39.087Z,10.78
2019-04-09T05:08:33.353Z,10.78
2019-04-09T05:09:32.775Z,10.81
2019-04-09T05:10:32.064Z,10.78
2019-04-09T05:11:31.578Z,10.89
2019-04-09T05:12:31.937Z,10.90
2019-04-09T05:13:32.474Z,10.86
2019-04-09T05:14:31.903Z,10.99
2019-04-09T05:15:32.000Z,10.93
2019-04-09T05:16:32.654Z,11.02
2019-04-09T05:17:32.333Z,11.04
2019-04-09T05:18:33.349Z,11.10
2019-04-09T05:19:32.798Z,11.05
2019-04-09T05:20:33.322Z,11.07
2019-04-09T05:21:32.972Z,11.18
2019-04-09T05:22:33.186Z,11.04
2019-04-09T05:23:33.795Z,11.07
2019-04-09T05:24:34.353Z,11.23
2019-04-09T05:25:33.634Z,11.15
2019-04-09T05:26:33.970Z,11.18
2019-04-09T05:27:35.086Z,11.25
2019-04-09T05:28:34.500Z,11.22
2019-04-09T05:29:34.423Z,11.19
2019-04-09T05:30:35.503Z,11.14
2019-04-09T05:31:34.860Z,11.32
2019-04-09T05:32:36.077Z,11.35
2019-04-09T05:33:35.158Z,11.36
2019-04-09T05:34:35.965Z,11.37
2019-04-09T05:35:35.442Z,11.40
2019-04-09T05:36:36.161Z,11.43
2019-04-09T05:37:36.509Z,11.50
2019-04-09T05:38:36.093Z,11.47
2019-04-09T05:39:36.525Z,11.44
2019-04-09T05:40:37.051Z,11.48
2019-04-09T05:41:36.687Z,11.54
2019-04-09T05:42:36.866Z,11.59
2019-04-09T05:43:37.054Z,11.54
2019-04-09T05:44:37.327Z,11.62
2019-04-09T05:45:38.176Z,11.65
2019-04-09T05:46:37.555Z,11.60
2019-04-09T05:47:37.700Z,11.73
2019-04-09T05:48:38.271Z,11.77
2019-04-09T05:49:38.176Z,11.90
2019-04-09T05:50:38.294Z,11.94
2019-04-09T05:51:38.371Z,11.90
2019-04-09T05:52:39.459Z,12.04
2019-04-09T05:53:38.698Z,12.06
2019-04-09T05:54:39.773Z,12.09
2019-04-09T05:55:39.121Z,12.06
2019-04-09T05:56:39.331Z,12.15
2019-04-09T05:57:41.365Z,12.17
2019-04-09T05:58:39.712Z,12.22
2019-04-09T05:59:39.855Z,12.18
2019-04-09T06:00:40.044Z,12.18
2019-04-09T06:01:40.809Z,12.32
2019-04-09T06:02:40.325Z,12.29
2019-04-09T06:03:40.504Z,12.39
2019-04-09T06:04:40.663Z,12.32
2019-04-09T06:05:40.824Z,12.45
2019-04-09T06:06:41.010Z,12.54
2019-04-09T06:07:41.119Z,12.65
2019-04-09T06:08:42.285Z,12.64
2019-04-09T06:09:41.491Z,12.68
2019-04-09T06:10:41.536Z,12.67
2019-04-09T06:11:42.239Z,12.67
2019-04-09T06:12:41.894Z,12.68
2019-04-09T06:13:42.022Z,12.73
2019-04-09T06:14:42.185Z,12.95
2019-04-09T06:15:43.375Z,12.93
2019-04-09T06:16:43.243Z,13.05
2019-04-09T06:17:43.371Z,13.18
2019-04-09T06:18:42.755Z,13.25
2019-04-09T06:19:42.926Z,13.33
2019-04-09T06:20:42.981Z,13.46
2019-04-09T06:21:44.360Z,13.71
2019-04-09T06:22:43.577Z,13.81
2019-04-09T06:23:43.555Z,13.83
2019-04-09T06:24:43.724Z,13.95
2019-04-09T06:25:44.044Z,13.90
2019-04-09T06:26:44.033Z,13.97
2019-04-09T06:27:44.179Z,13.97
2019-04-09T06:28:44.373Z,13.87
2019-04-09T06:29:44.549Z,13.89
2019-04-09T06:30:44.703Z,13.92
2019-04-09T06:31:44.926Z,13.92
2019-04-09T06:32:45.680Z,14.10
2019-04-09T06:33:45.200Z,14.14
2019-04-09T06:34:45.298Z,14.47
2019-04-09T06:35:46.303Z,14.60
2019-04-09T06:36:46.022Z,14.72
2019-04-09T06:37:46.624Z,14.81
2019-04-09T06:38:46.035Z,15.03
2019-04-09T06:39:47.519Z,15.21
2019-04-09T06:40:46.523Z,15.24
2019-04-09T06:41:46.536Z,15.19
2019-04-09T06:42:46.719Z,15.24
2019-04-09T06:43:46.913Z,15.47
2019-04-09T06:44:47.061Z,15.59
2019-04-09T06:45:47.501Z,15.79
2019-04-09T06:46:48.893Z,15.98
2019-04-09T06:47:47.544Z,16.21
2019-04-09T06:48:48.031Z,16.39
2019-04-09T06:49:48.262Z,16.64
2019-04-09T06:50:49.369Z,16.93
2019-04-09T06:51:52.201Z,17.22
2019-04-09T06:52:48.678Z,17.20
2019-04-09T06:53:48.546Z,17.27
2019-04-09T06:54:57.740Z,17.14
2019-04-09T06:55:49.150Z,17.19
2019-04-09T06:56:49.661Z,17.33
2019-04-09T06:57:49.899Z,17.38
2019-04-09T06:58:50.320Z,17.41
2019-04-09T06:59:49.385Z,17.49
2019-04-09T07:00:50.910Z,17.49
2019-04-09T07:01:49.835Z,17.74
2019-04-09T07:02:53.146Z,17.65
2019-04-09T07:03:51.203Z,17.94
2019-04-09T07:04:53.227Z,17.98
2019-04-09T07:05:52.494Z,18.03
2019-04-09T07:06:53.433Z,18.10
2019-04-09T07:07:51.905Z,18.20
2019-04-09T07:08:51.280Z,18.26
2019-04-09T07:09:51.679Z,18.34
2019-04-09T07:10:52.342Z,18.44
2019-04-09T07:11:51.613Z,18.29
2019-04-09T07:12:51.871Z,18.28
2019-04-09T07:13:51.968Z,18.35
2019-04-09T07:14:53.795Z,18.52
2019-04-09T07:15:52.764Z,18.52
2019-04-09T07:16:52.489Z,18.29
2019-04-09T07:17:52.707Z,18.35
2019-04-09T07:18:53.637Z,18.23
2019-04-09T07:19:53.497Z,18.07
2019-04-09T07:20:53.156Z,17.74
2019-04-09T07:21:53.629Z,17.87
2019-04-09T07:22:53.434Z,17.92
2019-04-09T07:23:54.316Z,18.01
2019-04-09T07:24:54.317Z,18.31
2019-04-09T07:25:54.325Z,18.26
2019-04-09T07:26:54.959Z,18.29
2019-04-09T07:27:55.273Z,18.33
2019-04-09T07:28:56.786Z,18.49
2019-04-09T07:30:03.984Z,18.75
2019-04-09T07:30:56.285Z,18.98
2019-04-09T07:31:55.311Z,19.09
2019-04-09T07:32:55.617Z,19.44
2019-04-09T07:33:55.264Z,19.52
2019-04-09T07:34:55.979Z,19.47
2019-04-09T07:35:55.600Z,19.40
2019-04-09T07:36:57.088Z,19.84
2019-04-09T07:37:56.387Z,20.06
2019-04-09T07:38:57.808Z,20.03
2019-04-09T07:40:00.573Z,19.94
2019-04-09T07:41:01.050Z,19.99
2019-04-09T07:41:56.614Z,20.18
2019-04-09T07:42:56.857Z,20.14
2019-04-09T07:43:59.007Z,19.82
2019-04-09T07:45:02.258Z,19.81
2019-04-09T07:45:58.021Z,20.06
2019-04-09T07:46:58.556Z,20.34
2019-04-09T07:48:00.948Z,20.26
2019-04-09T07:49:00.185Z,20.31
2019-04-09T07:50:00.200Z,20.40
2019-04-09T07:50:59.050Z,20.43
2019-04-09T07:51:58.985Z,20.62
2019-04-09T07:53:01.165Z,20.47
2019-04-09T07:54:02.258Z,20.43
2019-04-09T07:54:58.938Z,20.26
2019-04-09T07:56:00.853Z,20.09
2019-04-09T07:57:02.165Z,20.22
2019-04-09T07:57:59.789Z,20.22
2019-04-09T07:58:59.735Z,20.16
2019-04-09T08:00:09.233Z,20.10
2019-04-09T08:01:00.195Z,20.09
2019-04-09T08:02:00.277Z,19.86
2019-04-09T08:03:01.302Z,19.91
2019-04-09T08:04:04.473Z,19.91
2019-04-09T08:05:01.075Z,19.96
2019-04-09T08:06:00.984Z,20.07
2019-04-09T08:07:04.668Z,20.10
2019-04-09T08:08:03.138Z,19.91
2019-04-09T08:09:02.450Z,19.89
2019-04-09T08:10:02.016Z,19.77
2019-04-09T08:11:04.080Z,19.29
2019-04-09T08:12:02.827Z,19.37
2019-04-09T08:13:05.484Z,19.45
2019-04-09T08:14:02.461Z,19.52
2019-04-09T08:15:03.053Z,19.37
2019-04-09T08:16:06.297Z,19.47
2019-04-09T08:17:02.844Z,19.70
2019-04-09T08:18:07.292Z,19.77
2019-04-09T08:19:03.906Z,19.51
2019-04-09T08:20:03.315Z,19.69
2019-04-09T08:21:04.094Z,19.76
2019-04-09T08:22:06.900Z,19.88
2019-04-09T08:23:03.764Z,19.95
2019-04-09T08:24:03.923Z,20.11
2019-04-09T08:25:04.346Z,20.09
2019-04-09T08:26:05.240Z,20.13
2019-04-09T08:27:08.973Z,20.24
2019-04-09T08:28:04.833Z,20.43
2019-04-09T08:29:05.008Z,20.75
2019-04-09T08:30:18.104Z,20.95
2019-04-09T08:31:05.831Z,21.22
2019-04-09T08:32:12.444Z,21.29
2019-04-09T08:33:06.290Z,21.39
2019-04-09T08:34:06.274Z,21.43
2019-04-09T08:35:06.407Z,21.40
2019-04-09T08:36:09.300Z,21.61
2019-04-09T08:37:05.808Z,22.04
2019-04-09T08:38:06.898Z,22.38
2019-04-09T08:39:06.361Z,22.59
2019-04-09T08:40:08.954Z,22.68
2019-04-09T08:41:06.532Z,23.00
2019-04-09T08:42:06.712Z,22.99
2019-04-09T08:43:09.203Z,23.20
2019-04-09T08:44:12.629Z,23.46
2019-04-09T08:45:07.218Z,23.54
2019-04-09T08:46:08.025Z,23.80
2019-04-09T08:47:07.462Z,23.71
2019-04-09T08:48:12.993Z,23.83
2019-04-09T08:49:07.737Z,23.58
2019-04-09T08:50:08.338Z,23.86
2019-04-09T08:51:09.919Z,23.80
2019-04-09T08:52:11.155Z,23.66
2019-04-09T08:53:08.720Z,23.96
2019-04-09T08:54:08.739Z,24.16
2019-04-09T08:55:09.556Z,24.21
2019-04-09T08:56:09.617Z,24.48
2019-04-09T08:57:14.450Z,24.23
2019-04-09T08:58:10.288Z,24.29
2019-04-09T08:59:09.550Z,24.65
2019-04-09T09:00:09.864Z,24.78
2019-04-09T09:02:19.215Z,25.26
2019-04-09T09:03:10.728Z,25.62
2019-04-09T09:04:14.253Z,25.59
2019-04-09T09:05:15.996Z,25.68
2019-04-09T09:06:14.459Z,25.83
2019-04-09T09:07:13.782Z,25.62
2019-04-09T09:08:11.030Z,25.11
2019-04-09T09:09:12.183Z,24.77
2019-04-09T09:10:15.382Z,24.74
2019-04-09T09:11:11.759Z,24.98
2019-04-09T09:12:12.655Z,25.06
2019-04-09T09:13:15.579Z,25.01
2019-04-09T09:14:12.063Z,24.68
2019-04-09T09:15:12.183Z,24.55
2019-04-09T09:16:13.321Z,24.77
2019-04-09T09:17:12.869Z,24.93
2019-04-09T09:18:12.616Z,24.95
2019-04-09T09:19:13.147Z,25.04
2019-04-09T09:20:14.216Z,24.93
2019-04-09T09:21:20.635Z,25.10
2019-04-09T09:22:14.312Z,25.26
2019-04-09T09:23:13.430Z,25.07
2019-04-09T09:24:16.547Z,25.14
2019-04-09T09:25:13.814Z,25.21
2019-04-09T09:26:13.986Z,25.62
2019-04-09T09:27:15.480Z,25.50
2019-04-09T09:28:14.562Z,25.53
2019-04-09T09:29:15.403Z,25.59
2019-04-09T09:30:15.636Z,25.83
2019-04-09T09:31:20.790Z,26.16
2019-04-09T09:32:15.423Z,26.52
2019-04-09T09:33:15.761Z,26.63
2019-04-09T09:34:17.627Z,26.53
2019-04-09T09:35:15.911Z,26.81
2019-04-09T09:36:16.249Z,27.02
2019-04-09T09:37:18.345Z,27.20
2019-04-09T09:38:17.924Z,27.07
2019-04-09T09:39:16.331Z,27.44
2019-04-09T09:40:18.279Z,27.17
2019-04-09T09:41:16.662Z,27.52
2019-04-09T09:42:17.230Z,27.51
2019-04-09T09:43:19.199Z,27.73
2019-04-09T09:44:21.409Z,27.75
2019-04-09T09:45:17.369Z,27.93
2019-04-09T09:46:17.638Z,27.47
2019-04-09T09:47:17.809Z,27.64
2019-04-09T09:48:19.618Z,27.80
2019-04-09T09:49:18.192Z,27.74
2019-04-09T09:50:20.408Z,28.12
2019-04-09T09:51:18.508Z,28.19
2019-04-09T09:52:19.129Z,28.39
2019-04-09T09:53:19.658Z,28.20
2019-04-09T09:54:19.147Z,28.15
2019-04-09T09:55:21.436Z,28.14
2019-04-09T09:56:21.194Z,28.26
2019-04-09T09:57:20.452Z,28.00
2019-04-09T09:58:21.228Z,28.02
2019-04-09T09:59:26.615Z,28.01
2019-04-09T10:00:20.142Z,28.11
2019-04-09T10:01:29.339Z,28.30
2019-04-09T10:02:20.658Z,28.39
2019-04-09T10:03:21.711Z,28.30
2019-04-09T10:04:20.834Z,28.22
2019-04-09T10:05:22.000Z,28.14
2019-04-09T10:07:35.603Z,28.56
2019-04-09T10:07:58.643Z,28.30
2019-04-09T10:08:21.563Z,28.10
2019-04-09T10:09:26.097Z,28.44
2019-04-09T10:10:24.775Z,28.45
2019-04-09T10:11:22.078Z,28.79
2019-04-09T10:12:31.582Z,28.57
2019-04-09T10:13:25.756Z,28.51
2019-04-09T10:14:23.703Z,28.26
2019-04-09T10:15:23.273Z,27.68
2019-04-09T10:16:23.270Z,27.86
2019-04-09T10:17:28.247Z,27.82
2019-04-09T10:18:23.453Z,27.96
2019-04-09T10:19:28.123Z,27.83
2019-04-09T10:20:26.006Z,27.86
2019-04-09T10:21:24.650Z,27.82
2019-04-09T10:22:25.572Z,27.98
2019-04-09T10:23:27.088Z,28.05
2019-04-09T10:24:30.940Z,28.12
2019-04-09T10:25:28.645Z,27.93
2019-04-09T10:26:24.913Z,28.12
2019-04-09T10:27:26.206Z,28.60
2019-04-09T10:28:28.554Z,28.84
2019-04-09T10:29:25.924Z,28.66
2019-04-09T10:30:25.848Z,28.72
2019-04-09T10:31:34.804Z,28.78
2019-04-09T10:32:25.971Z,28.76
2019-04-09T10:33:26.647Z,28.42
2019-04-09T10:34:26.482Z,28.41
2019-04-09T10:35:30.823Z,28.47
2019-04-09T10:36:26.727Z,28.44
2019-04-09T10:37:26.904Z,28.85
2019-04-09T10:38:27.524Z,28.91
2019-04-09T10:39:34.174Z,28.70
2019-04-09T10:40:27.886Z,28.98
2019-04-09T10:41:37.320Z,29.29
2019-04-09T10:42:27.754Z,29.12
2019-04-09T10:43:28.436Z,29.29
2019-04-09T10:44:28.805Z,29.04
2019-04-09T10:45:28.508Z,29.20
2019-04-09T10:46:32.000Z,29.01
2019-04-09T10:47:28.792Z,29.13
2019-04-09T10:48:28.795Z,29.14
2019-04-09T10:49:28.878Z,29.01
2019-04-09T10:50:32.763Z,29.10
2019-04-09T10:51:29.189Z,29.27
2019-04-09T10:52:29.417Z,29.60
2019-04-09T10:53:32.714Z,29.57
2019-04-09T10:54:29.666Z,29.04
2019-04-09T10:55:29.822Z,29.12
2019-04-09T10:56:32.607Z,28.96
2019-04-09T10:57:30.173Z,28.84
2019-04-09T10:58:30.362Z,29.04
2019-04-09T10:59:32.252Z,29.12
2019-04-09T11:00:30.613Z,29.19
2019-04-09T11:01:37.889Z,29.34
2019-04-09T11:02:33.289Z,29.42
2019-04-09T11:03:35.852Z,29.05
2019-04-09T11:04:31.611Z,28.94
2019-04-09T11:05:31.546Z,28.96
2019-04-09T11:06:32.834Z,28.84
2019-04-09T11:07:34.655Z,29.04
2019-04-09T11:08:36.214Z,29.20
2019-04-09T11:09:32.655Z,29.35
2019-04-09T11:10:33.056Z,29.36
2019-04-09T11:11:32.588Z,29.53
2019-04-09T11:12:33.129Z,29.94
2019-04-09T11:13:34.400Z,29.98
2019-04-09T11:14:33.168Z,29.82
2019-04-09T11:15:33.305Z,30.08
2019-04-09T11:16:33.945Z,29.71
2019-04-09T11:17:37.596Z,29.97
2019-04-09T11:18:33.908Z,29.86
2019-04-09T11:19:35.016Z,29.87
2019-04-09T11:20:35.174Z,29.59
2019-04-09T11:21:36.937Z,29.47
2019-04-09T11:22:34.510Z,29.68
2019-04-09T11:23:35.366Z,29.38
2019-04-09T11:24:35.716Z,29.39
2019-04-09T11:25:37.644Z,29.36
2019-04-09T11:26:35.191Z,29.45
2019-04-09T11:27:35.250Z,29.05
2019-04-09T11:28:36.194Z,29.23
2019-04-09T11:29:35.561Z,29.35
2019-04-09T11:30:36.173Z,29.12
2019-04-09T11:31:45.469Z,28.93
2019-04-09T11:32:36.170Z,28.82
2019-04-09T11:33:37.371Z,28.91
2019-04-09T11:34:36.531Z,28.91
2019-04-09T11:35:36.719Z,28.94
2019-04-09T11:36:36.961Z,28.91
2019-04-09T11:37:37.106Z,29.01
2019-04-09T11:38:37.463Z,28.93
2019-04-09T11:39:38.497Z,28.79
2019-04-09T11:40:37.677Z,28.78
2019-04-09T11:41:39.162Z,28.82
2019-04-09T11:42:41.409Z,28.82
2019-04-09T11:43:40.413Z,28.75
2019-04-09T11:44:39.050Z,28.82
2019-04-09T11:45:39.773Z,28.63
2019-04-09T11:46:40.630Z,28.72
2019-04-09T11:47:41.343Z,28.41
2019-04-09T11:48:40.675Z,28.47
2019-04-09T11:49:40.255Z,28.52
2019-04-09T11:50:42.462Z,28.48
2019-04-09T11:51:41.643Z,28.05
2019-04-09T11:52:40.835Z,28.27
2019-04-09T11:53:40.670Z,28.20
2019-04-09T11:54:40.772Z,27.93
2019-04-09T11:55:40.214Z,27.98
2019-04-09T11:56:42.219Z,27.86
2019-04-09T11:57:41.468Z,27.73
2019-04-09T11:58:40.702Z,27.63
2019-04-09T11:59:41.484Z,27.65
2019-04-09T12:00:41.750Z,27.58
2019-04-09T12:01:41.253Z,27.27
2019-04-09T12:02:42.289Z,27.30
2019-04-09T12:03:41.628Z,27.21
2019-04-09T12:04:41.872Z,27.10
2019-04-09T12:05:44.576Z,26.58
2019-04-09T12:06:42.249Z,26.10
2019-04-09T12:07:42.445Z,26.18
2019-04-09T12:08:43.219Z,26.23
2019-04-09T12:09:43.574Z,25.96
2019-04-09T12:10:43.016Z,25.96
2019-04-09T12:11:45.264Z,25.58
2019-04-09T12:12:44.188Z,25.46
2019-04-09T12:13:43.530Z,25.59
2019-04-09T12:14:44.392Z,25.36
2019-04-09T12:15:44.696Z,25.23
2019-04-09T12:16:44.203Z,25.04
2019-04-09T12:17:47.097Z,24.78
2019-04-09T12:18:46.271Z,24.60
2019-04-09T12:19:44.749Z,24.30
2019-04-09T12:20:46.730Z,24.26
2019-04-09T12:21:45.696Z,23.99
2019-04-09T12:22:45.556Z,24.06
2019-04-09T12:23:45.422Z,23.91
2019-04-09T12:24:45.502Z,23.63
2019-04-09T12:25:46.183Z,23.59
2019-04-09T12:26:46.521Z,23.27
2019-04-09T12:27:46.599Z,23.15
2019-04-09T12:28:49.072Z,23.08
2019-04-09T12:29:46.837Z,23.12
2019-04-09T12:30:46.609Z,22.88
2019-04-09T12:31:46.784Z,22.70
2019-04-09T12:32:46.952Z,22.53
2019-04-09T12:33:47.190Z,22.44
2019-04-09T12:34:47.273Z,22.23
2019-04-09T12:35:48.594Z,22.20
2019-04-09T12:36:47.693Z,22.26
2019-04-09T12:37:48.072Z,22.23
2019-04-09T12:38:48.120Z,22.20
2019-04-09T12:39:48.542Z,22.15
2019-04-09T12:40:48.937Z,21.98
2019-04-09T12:41:50.576Z,22.14
2019-04-09T12:42:48.869Z,21.92
2019-04-09T12:43:50.430Z,21.77
2019-04-09T12:44:49.817Z,21.69
2019-04-09T12:45:49.315Z,21.76
2019-04-09T12:46:49.555Z,21.70
2019-04-09T12:47:50.343Z,21.85
2019-04-09T12:48:50.739Z,21.82
2019-04-09T12:49:50.118Z,21.82
2019-04-09T12:50:50.925Z,21.58
2019-04-09T12:51:51.279Z,21.57
2019-04-09T12:52:50.696Z,21.72
2019-04-09T12:53:50.992Z,21.50
2019-04-09T12:54:51.679Z,21.37
2019-04-09T12:55:54.206Z,21.29